Time;durP1;ratioP1;P1;durP2;ratioP2;P2;SDS_P1;SDS_P2;PMS_P1;PMS_P2;Temp;Humidity;BMP_temperature;BMP_pressure;BME280_temperature;BME280_humidity;BME280_pressure;Samples;Min_cycle;Max_cycle;Signal;HPM_P1;HPM_P2
2023/10/08 00:01:24;;;;;;;3.80;2.90;;;16.20;99.90;;;;;;5093631;28;20027;-84
2023/10/08 00:03:50;;;;;;;7.35;3.28;;;16.10;99.90;;;;;;5093332;28;20327;-84
2023/10/08 00:06:19;;;;;;;5.55;2.78;;;16.10;99.90;;;;;;5093006;28;20035;-83
2023/10/08 00:08:45;;;;;;;5.63;3.00;;;16.00;99.90;;;;;;5111477;28;20063;-88
2023/10/08 00:11:11;;;;;;;6.50;2.80;;;16.00;99.90;;;;;;5111442;28;20066;-83
2023/10/08 00:13:40;;;;;;;6.22;3.00;;;15.90;99.90;;;;;;5111552;28;20023;-83
2023/10/08 00:16:09;;;;;;;7.13;2.78;;;15.80;99.90;;;;;;5111491;28;20027;-88
2023/10/08 00:18:37;;;;;;;4.97;2.63;;;15.70;99.90;;;;;;5111411;28;20019;-83
2023/10/08 00:21:26;;;;;;;9.85;2.50;;;15.70;99.90;;;;;;5092905;28;20031;-83
2023/10/08 00:24:02;;;;;;;6.00;2.95;;;15.60;99.90;;;;;;5110610;28;20739;-89
2023/10/08 00:26:31;;;;;;;3.58;2.60;;;15.60;99.90;;;;;;5093522;28;20035;-85
2023/10/08 00:29:06;;;;;;;10.18;3.15;;;15.50;99.90;;;;;;5093487;28;20085;-84
2023/10/08 00:31:38;;;;;;;5.05;3.00;;;15.50;99.90;;;;;;5093362;28;20028;-85
2023/10/08 00:34:12;;;;;;;4.95;2.97;;;15.50;99.90;;;;;;5092862;28;20030;-82
2023/10/08 00:36:39;;;;;;;6.35;2.90;;;15.40;99.90;;;;;;5110939;28;20054;-90
2023/10/08 00:39:10;;;;;;;6.15;3.25;;;15.40;99.90;;;;;;5110883;28;20027;-83
2023/10/08 00:41:38;;;;;;;4.65;3.45;;;15.40;99.90;;;;;;5110877;28;20484;-84
2023/10/08 00:44:07;;;;;;;7.22;3.30;;;15.40;99.90;;;;;;5092752;28;20364;-85
2023/10/08 00:46:39;;;;;;;9.38;4.32;;;15.30;99.90;;;;;;5092439;28;20483;-84
2023/10/08 00:49:26;;;;;;;8.48;3.40;;;15.30;99.90;;;;;;5092477;28;20039;-84
2023/10/08 00:55:21;;;;;;;8.18;3.60;;;15.30;99.90;;;;;;5063474;28;20556;-86
2023/10/08 00:57:36;;;;;;;7.45;3.67;;;15.20;99.90;;;;;;5107116;28;20027;-83
2023/10/08 01:00:06;;;;;;;5.15;3.30;;;15.30;99.90;;;;;;5111434;28;20038;-83
2023/10/08 01:02:49;;;;;;;8.18;3.70;;;15.30;99.90;;;;;;5093098;28;20028;-89
2023/10/08 01:05:19;;;;;;;7.00;3.50;;;15.20;99.90;;;;;;5092157;28;20020;-83
2023/10/08 01:07:47;;;;;;;7.18;3.60;;;15.20;99.90;;;;;;5110239;28;20059;-84
2023/10/08 01:10:13;;;;;;;7.65;3.67;;;15.20;99.90;;;;;;5092225;28;20020;-83
2023/10/08 01:15:24;;;;;;;5.38;3.38;;;15.20;99.90;;;;;;5110042;28;20023;-89
2023/10/08 01:18:14;;;;;;;8.40;3.90;;;15.20;99.90;;;;;;5109627;28;20016;-89
2023/10/08 01:23:17;;;;;;;5.80;3.35;;;15.20;99.90;;;;;;5110234;28;20024;-84
2023/10/08 01:25:56;;;;;;;5.32;3.60;;;15.10;99.90;;;;;;5110085;28;20497;-83
2023/10/08 01:28:29;;;;;;;4.80;3.45;;;15.20;99.90;;;;;;5110096;28;20040;-84
2023/10/08 01:30:59;;;;;;;7.50;3.70;;;15.10;99.90;;;;;;5091944;28;20035;-83
2023/10/08 01:33:28;;;;;;;8.23;4.22;;;15.10;99.90;;;;;;5092128;28;20497;-83
2023/10/08 01:35:55;;;;;;;9.38;3.90;;;15.10;99.90;;;;;;5109835;28;20020;-83
2023/10/08 01:38:23;;;;;;;6.32;3.42;;;15.10;99.90;;;;;;5091588;28;20452;-90
2023/10/08 01:40:53;;;;;;;6.05;3.60;;;15.20;99.90;;;;;;5110054;28;20027;-88
2023/10/08 01:43:20;;;;;;;9.13;3.70;;;15.10;99.90;;;;;;5091634;28;20035;-87
2023/10/08 01:45:49;;;;;;;7.22;3.90;;;15.10;99.90;;;;;;5109888;28;20375;-90
2023/10/08 01:48:20;;;;;;;5.18;3.30;;;15.10;99.90;;;;;;5091521;28;20031;-84
2023/10/08 01:50:47;;;;;;;7.22;4.00;;;15.10;99.90;;;;;;5091193;28;20035;-89
2023/10/08 01:53:15;;;;;;;7.20;3.90;;;15.10;99.90;;;;;;5091528;28;20024;-88
2023/10/08 01:55:51;;;;;;;6.00;3.30;;;15.10;99.90;;;;;;5109563;28;20039;-83
2023/10/08 01:58:18;;;;;;;7.05;3.75;;;15.10;99.90;;;;;;5109673;28;20028;-83
2023/10/08 02:00:45;;;;;;;6.00;3.10;;;15.10;99.90;;;;;;5109226;28;20072;-83
2023/10/08 02:03:16;;;;;;;5.93;3.33;;;15.00;99.90;;;;;;5109583;28;20024;-84
2023/10/08 02:05:42;;;;;;;6.50;3.25;;;15.00;99.90;;;;;;5091234;28;20042;-83
2023/10/08 02:08:12;;;;;;;5.03;3.58;;;15.00;99.90;;;;;;5091534;28;20040;-83
2023/10/08 02:10:42;;;;;;;6.97;3.20;;;15.00;99.90;;;;;;5109417;28;20019;-83
2023/10/08 02:13:09;;;;;;;4.50;3.25;;;14.90;99.90;;;;;;5109394;28;20141;-82
2023/10/08 02:15:43;;;;;;;6.53;3.33;;;14.90;99.90;;;;;;5091868;28;20020;-90
2023/10/08 02:18:09;;;;;;;5.55;3.30;;;14.90;99.90;;;;;;5109444;28;20166;-83
2023/10/08 02:20:35;;;;;;;6.70;3.50;;;14.90;99.90;;;;;;5110387;28;20051;-83
2023/10/08 02:23:00;;;;;;;5.30;3.38;;;14.90;99.90;;;;;;5109564;28;20107;-83
2023/10/08 02:25:27;;;;;;;7.70;3.50;;;14.90;99.90;;;;;;5109403;28;20020;-89
2023/10/08 02:27:53;;;;;;;5.05;3.35;;;15.00;99.90;;;;;;5109129;28;20466;-83
2023/10/08 02:30:18;;;;;;;5.25;3.22;;;15.00;99.90;;;;;;5094061;28;20111;-90
2023/10/08 02:32:46;;;;;;;4.95;3.35;;;15.00;99.90;;;;;;5095156;28;20076;-88
2023/10/08 02:35:12;;;;;;;4.20;3.35;;;15.00;99.90;;;;;;5113410;28;20024;-83
2023/10/08 02:37:39;;;;;;;8.13;3.22;;;15.10;99.90;;;;;;5096166;28;20024;-84
2023/10/08 02:40:15;;;;;;;5.90;3.00;;;15.10;99.90;;;;;;5114139;28;20028;-90
2023/10/08 02:42:41;;;;;;;7.20;3.50;;;15.10;99.90;;;;;;5094954;28;20502;-83
2023/10/08 02:45:13;;;;;;;7.22;3.50;;;15.10;99.90;;;;;;5113984;28;20051;-91
2023/10/08 02:47:47;;;;;;;5.53;3.20;;;15.20;99.90;;;;;;5114173;28;20106;-83
2023/10/08 02:50:17;;;;;;;8.82;3.30;;;15.20;99.90;;;;;;5113183;28;20036;-86
2023/10/08 02:52:46;;;;;;;5.45;2.80;;;15.20;99.90;;;;;;5094951;28;20554;-86
2023/10/08 02:57:56;;;;;;;5.40;3.20;;;15.20;99.90;;;;;;5113337;28;20111;-89
2023/10/08 03:00:23;;;;;;;5.63;2.80;;;15.20;99.90;;;;;;5112870;28;20055;-89
2023/10/08 03:02:49;;;;;;;8.48;3.55;;;15.20;99.90;;;;;;5113126;28;20016;-84
2023/10/08 03:05:17;;;;;;;5.47;3.50;;;15.30;99.90;;;;;;5112873;28;20076;-89
2023/10/08 03:07:43;;;;;;;7.15;3.10;;;15.30;99.90;;;;;;5094351;28;20028;-84
2023/10/08 03:10:18;;;;;;;12.57;3.10;;;15.30;99.90;;;;;;5113722;28;20027;-84
2023/10/08 03:12:47;;;;;;;7.13;3.15;;;15.30;99.90;;;;;;5112725;28;20030;-84
2023/10/08 03:15:27;;;;;;;7.47;3.47;;;15.30;99.90;;;;;;5094628;28;20073;-83
2023/10/08 03:17:53;;;;;;;5.75;2.97;;;15.30;99.90;;;;;;5112704;28;20497;-83
2023/10/08 03:23:07;;;;;;;5.35;3.28;;;15.40;99.90;;;;;;5112645;28;20027;-88
2023/10/08 03:25:41;;;;;;;6.05;3.20;;;15.30;99.90;;;;;;5112579;28;20051;-83
2023/10/08 03:28:08;;;;;;;7.38;3.58;;;15.40;99.90;;;;;;5113482;28;20084;-85
2023/10/08 03:30:47;;;;;;;7.33;3.60;;;15.40;99.90;;;;;;5094145;28;20024;-84
2023/10/08 03:33:21;;;;;;;6.35;3.55;;;15.40;99.90;;;;;;5112414;28;20024;-83
2023/10/08 03:35:49;;;;;;;6.05;2.90;;;15.40;99.90;;;;;;5112291;28;20072;-89
2023/10/08 03:41:08;;;;;;;10.50;3.40;;;15.40;99.90;;;;;;5111954;28;20042;-83
2023/10/08 03:43:35;;;;;;;6.43;3.42;;;15.40;99.90;;;;;;5093869;28;20102;-88
2023/10/08 03:46:05;;;;;;;5.38;3.35;;;15.40;99.90;;;;;;5094031;28;20114;-89
2023/10/08 03:48:36;;;;;;;5.22;3.47;;;15.40;99.90;;;;;;5111922;28;20028;-88
2023/10/08 03:51:06;;;;;;;8.43;3.50;;;15.40;99.90;;;;;;5093697;28;20065;-85
2023/10/08 03:53:42;;;;;;;4.78;3.20;;;15.40;99.90;;;;;;5093745;28;20073;-84
2023/10/08 03:56:08;;;;;;;7.13;3.45;;;15.40;99.90;;;;;;5093911;28;20028;-84
2023/10/08 03:58:40;;;;;;;7.10;3.60;;;15.40;99.90;;;;;;5093837;28;20026;-84
2023/10/08 04:01:10;;;;;;;5.45;3.13;;;15.40;99.90;;;;;;5093549;28;20041;-88
2023/10/08 04:03:58;;;;;;;6.93;3.60;;;15.40;99.90;;;;;;5093829;28;20050;-89
2023/10/08 04:06:31;;;;;;;8.95;3.60;;;15.40;99.90;;;;;;5111635;28;20466;-87
2023/10/08 04:12:03;;;;;;;9.63;3.65;;;15.40;99.90;;;;;;5111702;28;20031;-84
2023/10/08 04:14:28;;;;;;;5.30;3.40;;;15.40;99.90;;;;;;5111102;28;20484;-84
2023/10/08 04:16:53;;;;;;;4.80;3.10;;;15.50;99.90;;;;;;5111705;28;20069;-89
2023/10/08 04:19:21;;;;;;;5.85;3.08;;;15.50;99.90;;;;;;5093577;28;20020;-89
2023/10/08 04:21:53;;;;;;;6.97;3.72;;;15.50;99.90;;;;;;5093344;28;20107;-86
2023/10/08 04:24:27;;;;;;;8.13;3.38;;;15.50;99.90;;;;;;5111527;28;20049;-89
2023/10/08 04:26:56;;;;;;;8.63;3.40;;;15.40;99.90;;;;;;5111419;28;20092;-85
2023/10/08 04:29:22;;;;;;;5.40;3.28;;;15.40;99.90;;;;;;5093278;28;20072;-89
2023/10/08 04:31:54;;;;;;;6.68;3.00;;;15.40;99.90;;;;;;5093101;28;20027;-89
2023/10/08 04:34:22;;;;;;;6.63;3.13;;;15.40;99.90;;;;;;5111309;28;20028;-85
2023/10/08 04:36:54;;;;;;;6.05;3.05;;;15.40;99.90;;;;;;5092950;28;20019;-86
2023/10/08 04:39:26;;;;;;;6.57;3.13;;;15.50;99.90;;;;;;5093086;28;20023;-83
2023/10/08 04:41:58;;;;;;;5.03;2.90;;;15.50;99.90;;;;;;5093054;28;20441;-90
2023/10/08 04:44:25;;;;;;;5.88;3.10;;;15.50;99.90;;;;;;5092635;28;20402;-87
2023/10/08 04:46:52;;;;;;;6.05;3.00;;;15.50;99.90;;;;;;5092733;28;20026;-85
2023/10/08 04:49:28;;;;;;;5.80;3.15;;;15.50;99.90;;;;;;5092572;28;20092;-83
2023/10/08 04:52:08;;;;;;;4.95;3.10;;;15.50;99.90;;;;;;5092455;28;20555;-87
2023/10/08 04:54:40;;;;;;;5.82;3.20;;;15.50;99.90;;;;;;5092195;28;20088;-84
2023/10/08 04:57:06;;;;;;;9.48;2.92;;;15.40;99.90;;;;;;5092971;28;20035;-84
2023/10/08 04:59:32;;;;;;;7.55;2.90;;;15.30;99.90;;;;;;5092651;28;20258;-83
2023/10/08 05:05:21;;;;;;;3.97;2.80;;;15.10;99.90;;;;;;5110617;28;20020;-84
2023/10/08 05:10:32;;;;;;;5.65;3.40;;;14.90;99.90;;;;;;5110609;28;20118;-83
2023/10/08 05:15:47;;;;;;;12.18;3.55;;;14.70;99.90;;;;;;5110620;28;20028;-88
2023/10/08 05:18:23;;;;;;;8.77;3.20;;;14.40;99.90;;;;;;5093153;28;20023;-85
2023/10/08 05:25:58;;;;;;;7.47;3.05;;;14.30;99.90;;;;;;5110206;28;20027;-84
2023/10/08 05:28:24;;;;;;;5.18;2.95;;;14.30;99.90;;;;;;5091633;28;20043;-83
2023/10/08 05:31:11;;;;;;;6.28;3.13;;;14.20;99.90;;;;;;5091976;28;20012;-83
2023/10/08 05:36:49;;;;;;;7.25;3.10;;;14.10;99.90;;;;;;5062592;28;20032;-89
2023/10/08 05:39:55;;;;;;;6.82;3.55;;;14.10;99.90;;;;;;5110619;28;20031;-89
2023/10/08 05:42:19;;;;;;;7.20;4.10;;;14.00;99.90;;;;;;5106551;28;20440;-84
2023/10/08 05:44:46;;;;;;;5.80;3.13;;;13.90;99.90;;;;;;5111034;28;20020;-88
2023/10/08 05:55:33;;;;;;;5.97;3.08;;;13.80;99.90;;;;;;5109630;28;20487;-83
2023/10/08 05:58:13;;;;;;;4.93;3.08;;;13.80;99.90;;;;;;5109834;28;20016;-89
2023/10/08 06:03:32;;;;;;;4.90;2.87;;;13.70;99.90;;;;;;5110751;28;20015;-90
2023/10/08 06:09:06;;;;;;;5.68;2.80;;;13.70;99.90;;;;;;5113977;28;20114;-88
2023/10/08 06:11:44;;;;;;;4.60;3.00;;;13.70;99.90;;;;;;5095751;28;20102;-85
2023/10/08 06:14:13;;;;;;;5.82;2.80;;;13.60;99.90;;;;;;5114252;28;20243;-84
2023/10/08 06:16:43;;;;;;;4.45;2.97;;;13.60;99.90;;;;;;5095931;28;20032;-87
2023/10/08 06:19:11;;;;;;;7.72;3.15;;;13.60;99.90;;;;;;5095642;28;20026;-83
2023/10/08 06:21:39;;;;;;;6.57;3.05;;;13.60;99.90;;;;;;5095491;28;20019;-83
2023/10/08 06:24:09;;;;;;;7.97;3.30;;;13.60;99.90;;;;;;5095586;28;20065;-86
2023/10/08 06:26:48;;;;;;;6.60;3.30;;;13.50;99.90;;;;;;5113834;28;20031;-88
2023/10/08 06:29:27;;;;;;;6.13;3.10;;;13.60;99.90;;;;;;5095405;28;20499;-83
2023/10/08 06:32:05;;;;;;;5.85;3.42;;;13.60;99.90;;;;;;5095524;28;20028;-83
2023/10/08 06:34:31;;;;;;;5.32;3.30;;;13.70;99.90;;;;;;5095244;28;20034;-83
2023/10/08 06:36:59;;;;;;;9.68;3.25;;;13.70;99.90;;;;;;5113415;28;20099;-88
2023/10/08 06:39:25;;;;;;;4.95;2.95;;;13.70;99.90;;;;;;5113545;28;20058;-83
2023/10/08 06:41:57;;;;;;;4.07;2.63;;;13.70;99.90;;;;;;5114416;28;20024;-86
2023/10/08 06:44:22;;;;;;;3.88;2.80;;;13.70;99.90;;;;;;5113300;28;20038;-84
2023/10/08 06:46:48;;;;;;;6.40;3.00;;;13.70;99.90;;;;;;5114237;28;20019;-83
2023/10/08 06:49:15;;;;;;;10.88;3.20;;;13.80;99.90;;;;;;5095175;28;20494;-88
2023/10/08 06:51:43;;;;;;;7.03;3.17;;;13.80;99.90;;;;;;5095094;28;20107;-84
2023/10/08 06:54:13;;;;;;;6.25;3.13;;;13.80;99.90;;;;;;5113431;28;20475;-88
2023/10/08 06:56:39;;;;;;;4.22;2.78;;;13.80;99.90;;;;;;5094947;28;20020;-88
2023/10/08 06:59:06;;;;;;;6.78;3.08;;;13.90;99.90;;;;;;5113184;28;20080;-87
2023/10/08 07:01:45;;;;;;;4.75;2.88;;;13.90;99.90;;;;;;5094790;28;20192;-84
2023/10/08 07:04:12;;;;;;;7.70;3.13;;;14.00;99.90;;;;;;5094536;28;20119;-84
2023/10/08 07:06:45;;;;;;;4.15;2.78;;;14.10;99.90;;;;;;5112552;28;20024;-84
2023/10/08 07:09:22;;;;;;;5.93;3.30;;;14.20;99.90;;;;;;5112568;28;20040;-84
2023/10/08 07:11:57;;;;;;;5.63;2.53;;;14.30;99.90;;;;;;5112906;28;20019;-83
2023/10/08 07:14:28;;;;;;;5.50;3.33;;;14.40;99.90;;;;;;5094960;28;20040;-84
2023/10/08 07:16:59;;;;;;;7.85;3.47;;;14.50;99.90;;;;;;5093803;28;20020;-84
2023/10/08 07:19:36;;;;;;;7.75;3.40;;;14.60;99.90;;;;;;5094270;28;20507;-84
2023/10/08 07:22:21;;;;;;;4.70;2.63;;;14.80;99.90;;;;;;5112602;28;20011;-85
2023/10/08 07:24:50;;;;;;;5.68;3.28;;;14.90;99.90;;;;;;5094118;28;20027;-83
2023/10/08 07:27:29;;;;;;;4.88;3.45;;;14.90;99.90;;;;;;5094018;28;20055;-88
2023/10/08 07:29:55;;;;;;;5.13;3.45;;;15.00;99.90;;;;;;5112411;28;20031;-84
2023/10/08 07:32:21;;;;;;;5.95;3.22;;;15.00;99.90;;;;;;5113119;28;20015;-90
2023/10/08 07:34:47;;;;;;;5.32;2.90;;;15.10;99.90;;;;;;5094033;28;20411;-84
2023/10/08 07:37:14;;;;;;;8.82;3.40;;;15.20;99.90;;;;;;5112298;28;20035;-88
2023/10/08 07:39:46;;;;;;;6.90;3.03;;;15.40;99.90;;;;;;5093900;28;20027;-89
2023/10/08 07:42:12;;;;;;;6.38;3.05;;;15.50;99.90;;;;;;5112180;28;20097;-84
2023/10/08 07:44:39;;;;;;;4.68;2.90;;;15.60;99.90;;;;;;5112039;28;20016;-83
2023/10/08 07:47:10;;;;;;;5.70;3.33;;;15.70;99.90;;;;;;5111890;28;20027;-84
2023/10/08 07:49:36;;;;;;;5.22;2.90;;;15.80;99.90;;;;;;5111796;28;20518;-84
2023/10/08 07:52:04;;;;;;;3.65;2.50;;;15.90;99.90;;;;;;5093526;28;20096;-84
2023/10/08 07:54:34;;;;;;;6.28;2.72;;;16.10;99.90;;;;;;5093568;28;20118;-87
2023/10/08 07:57:11;;;;;;;10.38;2.70;;;16.10;99.90;;;;;;5111779;28;20510;-84
2023/10/08 07:59:41;;;;;;;5.45;2.72;;;16.20;99.90;;;;;;5093209;28;20121;-84
2023/10/08 08:02:09;;;;;;;7.93;2.80;;;16.40;99.90;;;;;;5093291;28;20502;-84
2023/10/08 08:04:36;;;;;;;6.68;2.72;;;16.40;99.90;;;;;;5093274;28;20020;-84
2023/10/08 08:07:04;;;;;;;6.70;2.63;;;16.50;99.90;;;;;;5111421;28;20031;-84
2023/10/08 08:09:30;;;;;;;5.35;2.60;;;16.60;99.90;;;;;;5093389;28;20039;-86
2023/10/08 08:11:57;;;;;;;4.95;2.65;;;16.70;99.90;;;;;;5093989;28;20020;-90
2023/10/08 08:14:24;;;;;;;5.30;2.72;;;16.80;99.90;;;;;;5112321;28;20509;-84
2023/10/08 08:16:50;;;;;;;4.38;2.80;;;17.00;99.90;;;;;;5111473;28;20073;-83
2023/10/08 08:19:24;;;;;;;6.57;2.90;;;17.10;99.90;;;;;;5093346;28;20023;-84
2023/10/08 08:21:49;;;;;;;6.38;3.05;;;17.20;99.90;;;;;;5111386;28;20532;-90
2023/10/08 08:24:28;;;;;;;5.45;2.40;;;17.20;99.90;;;;;;5093319;28;20016;-84
2023/10/08 08:27:07;;;;;;;5.97;2.67;;;17.10;99.90;;;;;;5093546;28;20019;-84
2023/10/08 08:29:44;;;;;;;4.63;2.75;;;17.30;99.90;;;;;;5092929;28;20406;-84
2023/10/08 08:32:15;;;;;;;4.80;2.55;;;17.50;99.90;;;;;;5092778;28;20390;-85
2023/10/08 08:34:44;;;;;;;5.70;2.90;;;17.60;99.90;;;;;;5092822;28;20028;-84
2023/10/08 08:37:11;;;;;;;5.07;2.80;;;17.70;99.90;;;;;;5092822;28;20023;-84
2023/10/08 08:39:41;;;;;;;6.85;2.80;;;17.80;99.90;;;;;;5110935;28;20062;-85
2023/10/08 08:42:07;;;;;;;6.68;2.65;;;17.90;99.90;;;;;;5092545;28;20051;-84
2023/10/08 08:44:45;;;;;;;6.55;2.90;;;17.90;99.90;;;;;;5110808;28;20082;-85
2023/10/08 08:47:24;;;;;;;;;;;18.00;99.90;;;;;;5111073;28;20024;-84
2023/10/08 08:49:53;;;;;;;4.82;2.42;;;18.10;99.90;;;;;;5110714;28;19912;-84
2023/10/08 08:52:18;;;;;;;5.60;2.78;;;18.10;99.90;;;;;;5092405;28;20691;-89
2023/10/08 08:54:44;;;;;;;6.35;2.97;;;18.30;99.90;;;;;;5110833;28;20110;-89
2023/10/08 08:57:14;;;;;;;5.07;3.17;;;18.40;99.90;;;;;;5092441;28;20023;-86
2023/10/08 08:59:53;;;;;;;5.95;2.97;;;18.40;99.90;;;;;;5110436;28;20064;-84
2023/10/08 09:02:18;;;;;;;6.40;2.60;;;18.50;99.90;;;;;;5110630;28;20148;-85
2023/10/08 09:04:45;;;;;;;6.38;2.92;;;18.60;99.90;;;;;;5110555;28;20099;-87
2023/10/08 09:07:12;;;;;;;6.70;2.75;;;18.70;99.90;;;;;;5110612;28;20019;-90
2023/10/08 09:09:39;;;;;;;6.90;2.83;;;18.80;99.90;;;;;;5110506;28;20019;-90
2023/10/08 09:12:05;;;;;;;5.47;2.80;;;18.90;99.90;;;;;;5110586;28;20382;-85
2023/10/08 09:14:32;;;;;;;6.50;3.05;;;19.00;99.90;;;;;;5110835;28;20019;-85
2023/10/08 09:16:59;;;;;;;4.10;2.33;;;19.00;99.90;;;;;;5111387;28;20016;-86
2023/10/08 09:19:26;;;;;;;5.10;2.83;;;19.10;99.90;;;;;;5111294;28;20107;-89
2023/10/08 09:22:07;;;;;;;10.43;2.78;;;19.20;99.90;;;;;;5110501;28;20016;-91
2023/10/08 09:24:36;;;;;;;7.68;2.70;;;19.20;99.90;;;;;;5092164;28;20106;-89
2023/10/08 09:27:03;;;;;;;7.03;2.72;;;19.30;99.90;;;;;;5092157;28;20031;-88
2023/10/08 09:29:30;;;;;;;3.75;2.70;;;19.40;99.90;;;;;;5092950;28;20376;-90
2023/10/08 09:31:57;;;;;;;4.57;2.67;;;19.40;99.90;;;;;;5111092;28;20098;-84
2023/10/08 09:34:30;;;;;;;5.97;2.95;;;19.50;99.90;;;;;;5091928;28;20450;-90
2023/10/08 09:36:57;;;;;;;7.10;3.15;;;19.50;99.90;;;;;;5111016;28;20479;-89
2023/10/08 09:39:25;;;;;;;7.78;3.95;;;19.60;99.90;;;;;;5109518;28;20031;-88
2023/10/08 09:41:53;;;;;;;7.97;2.85;;;19.60;99.90;;;;;;5109923;28;20445;-90
2023/10/08 09:44:20;;;;;;;6.28;3.00;;;19.60;99.90;;;;;;5110062;28;20065;-87
2023/10/08 09:46:52;;;;;;;5.35;2.60;;;19.70;99.90;;;;;;5091821;28;20024;-88
2023/10/08 09:49:24;;;;;;;6.00;2.42;;;19.70;99.90;;;;;;5091683;28;20043;-87
2023/10/08 09:51:50;;;;;;;4.45;2.63;;;19.80;99.90;;;;;;5091789;28;20021;-89
2023/10/08 09:54:24;;;;;;;5.03;2.72;;;19.80;99.90;;;;;;5091903;28;20055;-84
2023/10/08 09:56:51;;;;;;;11.00;2.70;;;19.80;99.90;;;;;;5110116;28;20020;-86
2023/10/08 09:59:19;;;;;;;6.95;2.83;;;19.90;99.90;;;;;;5109979;28;20085;-88
2023/10/08 10:01:47;;;;;;;5.53;2.83;;;19.90;99.90;;;;;;5091712;28;20027;-86
2023/10/08 10:04:23;;;;;;;4.23;2.50;;;20.00;99.90;;;;;;5109884;28;20030;-90
2023/10/08 10:06:50;;;;;;;6.40;3.08;;;20.10;99.90;;;;;;5109917;28;20020;-87
2023/10/08 10:09:24;;;;;;;5.88;3.13;;;20.10;99.90;;;;;;5091565;28;20107;-86
2023/10/08 10:11:52;;;;;;;5.22;3.03;;;20.20;99.90;;;;;;5091615;28;20020;-85
2023/10/08 10:14:18;;;;;;;6.72;3.10;;;20.30;99.90;;;;;;5109702;28;20027;-84
2023/10/08 10:16:48;;;;;;;5.45;2.60;;;20.30;99.90;;;;;;5109603;28;20024;-87
2023/10/08 10:19:20;;;;;;;4.82;2.45;;;20.30;99.90;;;;;;5110001;28;20371;-87
2023/10/08 10:21:47;;;;;;;7.07;3.00;;;20.40;99.90;;;;;;5109811;28;20027;-84
2023/10/08 10:24:41;;;;;;;8.20;2.53;;;20.50;99.90;;;;;;5109793;28;20047;-89
2023/10/08 10:27:14;;;;;;;6.28;3.03;;;20.60;99.90;;;;;;5081672;28;20024;-86
2023/10/08 10:29:43;;;;;;;8.77;2.97;;;20.60;99.90;;;;;;5109682;28;20019;-85
2023/10/08 10:32:15;;;;;;;6.95;2.83;;;20.70;99.90;;;;;;5109808;28;20016;-89
2023/10/08 10:34:43;;;;;;;8.07;2.90;;;20.80;99.90;;;;;;5091479;28;20047;-87
2023/10/08 10:37:18;;;;;;;7.35;2.67;;;20.80;99.90;;;;;;5091431;28;20531;-88
2023/10/08 10:39:53;;;;;;;7.78;2.97;;;20.90;99.90;;;;;;5091671;28;20024;-88
2023/10/08 10:42:20;;;;;;;5.03;3.10;;;20.90;99.90;;;;;;5109538;28;20016;-85
2023/10/08 10:44:49;;;;;;;6.40;2.88;;;21.00;99.90;;;;;;5109536;28;20024;-86
2023/10/08 10:49:53;;;;;;;10.03;3.10;;;21.10;99.90;;;;;;5109778;28;20036;-88
2023/10/08 10:52:32;;;;;;;7.13;2.92;;;21.10;99.90;;;;;;5113248;28;20042;-89
2023/10/08 11:03:15;;;;;;;6.40;2.80;;;21.40;99.90;;;;;;5113199;28;20020;-87
2023/10/08 11:05:47;;;;;;;7.22;2.83;;;21.30;99.90;;;;;;5094943;28;20027;-89
2023/10/08 11:08:15;;;;;;;6.22;2.60;;;21.40;99.90;;;;;;5113134;28;20063;-88
2023/10/08 11:10:49;;;;;;;5.43;2.60;;;21.40;99.90;;;;;;5113144;28;20069;-89
2023/10/08 11:13:15;;;;;;;3.63;2.55;;;21.40;99.90;;;;;;5112935;28;20024;-88
2023/10/08 11:15:42;;;;;;;5.95;2.92;;;21.40;99.90;;;;;;5094854;28;20026;-89
2023/10/08 11:18:09;;;;;;;5.78;2.95;;;21.50;99.90;;;;;;5112346;28;20038;-85
2023/10/08 11:20:44;;;;;;;4.67;2.77;;;21.40;99.90;;;;;;5113126;28;20483;-90
2023/10/08 11:23:19;;;;;;;3.35;2.25;;;21.40;99.90;;;;;;5112845;28;20031;-90
2023/10/08 11:26:05;;;;;;;4.25;2.53;;;21.50;99.90;;;;;;5094544;28;20992;-91
2023/10/08 11:28:47;;;;;;;5.30;2.83;;;21.40;99.90;;;;;;5094278;28;20608;-88
2023/10/08 11:31:19;;;;;;;6.43;2.67;;;21.50;99.90;;;;;;5112790;28;20073;-86
2023/10/08 11:33:54;;;;;;;7.55;2.65;;;21.50;99.90;;;;;;5112637;28;20027;-88
2023/10/08 11:36:34;;;;;;;7.30;2.63;;;21.50;99.90;;;;;;5094138;28;20028;-85
2023/10/08 11:39:13;;;;;;;6.28;2.72;;;21.50;99.90;;;;;;5112682;28;20019;-90
2023/10/08 11:41:50;;;;;;;5.10;2.67;;;21.60;99.90;;;;;;5112412;28;20016;-88
2023/10/08 11:44:19;;;;;;;6.73;2.73;;;21.60;99.90;;;;;;5094199;28;20030;-86
2023/10/08 11:46:45;;;;;;;4.88;2.60;;;21.60;99.90;;;;;;5112359;28;20296;-88
2023/10/08 11:49:25;;;;;;;4.63;2.47;;;21.70;99.90;;;;;;5112088;28;20039;-87
2023/10/08 11:51:57;;;;;;;4.60;2.63;;;21.70;99.90;;;;;;5093916;28;20024;-90
2023/10/08 11:54:23;;;;;;;7.70;2.92;;;21.70;99.90;;;;;;5093952;28;20032;-87
2023/10/08 11:56:50;;;;;;;6.22;3.50;;;21.80;99.90;;;;;;5093871;28;20027;-90
2023/10/08 11:59:18;;;;;;;5.70;3.53;;;21.80;99.90;;;;;;5111900;28;20035;-85
2023/10/08 12:01:43;;;;;;;;;;;22.00;99.90;;;;;;5093775;28;20126;-86
2023/10/08 12:04:15;;;;;;;4.10;2.80;;;22.00;99.90;;;;;;5112088;28;20414;-84
2023/10/08 12:06:46;;;;;;;7.00;3.40;;;21.90;99.90;;;;;;5093752;28;20487;-91
2023/10/08 12:09:13;;;;;;;7.35;2.97;;;22.00;99.90;;;;;;5093448;28;20038;-87
2023/10/08 12:11:39;;;;;;;5.70;2.80;;;22.10;99.90;;;;;;5094425;28;20046;-90
2023/10/08 12:14:05;;;;;;;5.53;2.70;;;22.10;99.90;;;;;;5094406;28;20019;-85
2023/10/08 12:16:35;;;;;;;7.28;2.88;;;22.20;99.90;;;;;;5111887;28;20026;-85
2023/10/08 12:19:02;;;;;;;4.47;2.67;;;22.20;99.90;;;;;;5111658;28;20020;-86
2023/10/08 12:21:31;;;;;;;4.45;2.60;;;22.30;99.90;;;;;;5111567;28;20470;-88
2023/10/08 12:23:57;;;;;;;5.05;3.03;;;22.20;99.90;;;;;;5093226;28;20073;-85
2023/10/08 12:26:23;;;;;;;11.95;2.95;;;22.30;99.90;;;;;;5111526;28;20519;-85
2023/10/08 12:28:49;;;;;;;6.68;3.05;;;22.30;99.90;;;;;;5111327;28;20040;-87
2023/10/08 12:31:16;;;;;;;8.23;3.13;;;22.40;99.90;;;;;;5111460;28;20024;-85
2023/10/08 12:33:45;;;;;;;5.70;3.15;;;22.30;99.90;;;;;;5111263;28;20028;-85
2023/10/08 12:36:11;;;;;;;5.10;3.00;;;22.50;99.90;;;;;;5111181;28;20024;-84
2023/10/08 12:38:39;;;;;;;7.40;3.45;;;22.50;99.90;;;;;;5112036;28;20035;-91
2023/10/08 12:41:13;;;;;;;5.00;3.13;;;22.50;99.90;;;;;;5093043;28;20020;-88
2023/10/08 12:43:52;;;;;;;4.95;2.85;;;22.50;99.90;;;;;;5112104;28;20031;-84
2023/10/08 12:46:18;;;;;;;4.97;3.00;;;22.60;99.90;;;;;;5092924;28;20186;-87
2023/10/08 12:48:47;;;;;;;12.00;3.47;;;22.60;99.90;;;;;;5110896;28;20067;-88
2023/10/08 12:51:14;;;;;;;9.52;3.33;;;22.60;99.90;;;;;;5111087;28;20015;-87
2023/10/08 12:53:40;;;;;;;5.53;3.00;;;22.60;99.90;;;;;;5093667;28;20038;-84
2023/10/08 12:56:14;;;;;;;7.78;3.35;;;22.70;99.90;;;;;;5111177;28;20031;-90
2023/10/08 12:58:43;;;;;;;12.32;3.50;;;22.70;99.90;;;;;;5111623;28;20019;-85
2023/10/08 13:01:13;;;;;;;10.73;3.17;;;22.80;99.90;;;;;;5111714;28;20055;-88
2023/10/08 13:03:42;;;;;;;9.15;3.28;;;22.80;99.90;;;;;;5093493;28;20398;-87
2023/10/08 13:06:21;;;;;;;6.40;3.40;;;22.80;99.90;;;;;;5111583;28;20098;-84
2023/10/08 13:08:48;;;;;;;6.75;3.50;;;22.80;99.90;;;;;;5092437;28;20127;-87
2023/10/08 13:11:13;;;;;;;7.03;3.25;;;22.80;99.90;;;;;;5110680;28;20019;-85
2023/10/08 13:13:39;;;;;;;4.75;2.83;;;22.80;99.90;;;;;;5110545;28;20039;-85
2023/10/08 13:16:07;;;;;;;7.32;3.40;;;22.80;99.90;;;;;;5110620;28;20027;-85
2023/10/08 13:18:41;;;;;;;5.68;3.08;;;22.80;99.90;;;;;;5110314;28;20395;-86
2023/10/08 13:21:09;;;;;;;7.28;3.53;;;22.90;99.90;;;;;;5111503;28;20020;-88
2023/10/08 13:23:35;;;;;;;4.38;2.45;;;23.10;99.90;;;;;;5110500;28;20057;-85
2023/10/08 13:26:04;;;;;;;6.20;3.28;;;23.10;99.90;;;;;;5092144;28;20107;-90
2023/10/08 13:28:33;;;;;;;4.88;3.20;;;23.10;99.90;;;;;;5110087;28;20038;-89
2023/10/08 13:31:11;;;;;;;10.65;3.10;;;23.00;99.90;;;;;;5092261;28;20023;-86
2023/10/08 13:33:42;;;;;;;6.57;3.17;;;23.00;99.90;;;;;;5091952;28;20487;-84
2023/10/08 13:36:09;;;;;;;7.35;3.00;;;23.10;99.90;;;;;;5110249;28;20479;-85
2023/10/08 13:38:36;;;;;;;9.43;3.22;;;23.10;99.90;;;;;;5110152;28;20027;-84
2023/10/08 13:41:03;;;;;;;5.33;3.30;;;23.10;99.90;;;;;;5110099;28;20027;-87
2023/10/08 13:43:33;;;;;;;6.45;2.83;;;23.20;99.90;;;;;;5109991;28;20027;-84
2023/10/08 13:46:08;;;;;;;6.88;3.22;;;23.20;99.90;;;;;;5109539;28;20023;-84
2023/10/08 13:48:35;;;;;;;6.05;3.22;;;23.20;99.90;;;;;;5109812;28;20069;-90
2023/10/08 13:51:03;;;;;;;7.40;3.20;;;23.30;99.90;;;;;;5110069;28;20016;-84
2023/10/08 13:53:30;;;;;;;7.63;3.30;;;23.30;99.90;;;;;;5091682;28;20139;-89
2023/10/08 13:56:04;;;;;;;7.38;3.35;;;23.40;99.90;;;;;;5109955;28;20102;-85
2023/10/08 13:58:30;;;;;;;6.57;3.00;;;23.60;99.90;;;;;;5109865;28;20024;-89
2023/10/08 14:01:04;;;;;;;6.97;2.97;;;23.60;99.90;;;;;;5109822;28;20026;-88
2023/10/08 14:03:32;;;;;;;7.68;2.88;;;23.50;99.90;;;;;;5091651;28;20028;-90
2023/10/08 14:06:04;;;;;;;7.28;3.45;;;23.50;99.90;;;;;;5091533;28;20019;-91